sensor_id;sensor_type;location;lat;lon;timestamp;temperature;humidity
67942;SHT31;54731;42.600;23.476;2024-01-27T00:01:47;1.39;72.02
67942;SHT31;54731;42.600;23.476;2024-01-27T00:04:12;1.44;72.28
67942;SHT31;54731;42.600;23.476;2024-01-27T00:06:37;1.41;72.25
67942;SHT31;54731;42.600;23.476;2024-01-27T00:09:03;1.40;72.40
67942;SHT31;54731;42.600;23.476;2024-01-27T00:11:29;1.44;72.43
67942;SHT31;54731;42.600;23.476;2024-01-27T00:13:54;1.47;72.33
67942;SHT31;54731;42.600;23.476;2024-01-27T00:16:20;1.39;72.46
67942;SHT31;54731;42.600;23.476;2024-01-27T00:18:45;1.37;72.59
67942;SHT31;54731;42.600;23.476;2024-01-27T00:21:11;1.39;72.72
67942;SHT31;54731;42.600;23.476;2024-01-27T00:23:36;1.26;72.98
67942;SHT31;54731;42.600;23.476;2024-01-27T00:26:01;1.22;73.14
67942;SHT31;54731;42.600;23.476;2024-01-27T00:28:27;1.22;73.18
67942;SHT31;54731;42.600;23.476;2024-01-27T00:30:52;1.29;73.01
67942;SHT31;54731;42.600;23.476;2024-01-27T00:33:17;1.17;73.22
67942;SHT31;54731;42.600;23.476;2024-01-27T00:35:43;1.12;73.47
67942;SHT31;54731;42.600;23.476;2024-01-27T00:38:09;1.09;73.61
67942;SHT31;54731;42.600;23.476;2024-01-27T00:40:34;1.09;73.66
67942;SHT31;54731;42.600;23.476;2024-01-27T00:42:59;1.00;73.63
67942;SHT31;54731;42.600;23.476;2024-01-27T00:45:27;1.04;73.51
67942;SHT31;54731;42.600;23.476;2024-01-27T00:47:52;1.09;73.38
67942;SHT31;54731;42.600;23.476;2024-01-27T00:50:17;1.13;72.97
67942;SHT31;54731;42.600;23.476;2024-01-27T00:52:43;1.12;72.94
67942;SHT31;54731;42.600;23.476;2024-01-27T00:55:08;1.19;72.69
67942;SHT31;54731;42.600;23.476;2024-01-27T00:57:36;1.16;72.58
67942;SHT31;54731;42.600;23.476;2024-01-27T01:00:02;1.17;72.57
67942;SHT31;54731;42.600;23.476;2024-01-27T01:02:27;1.12;72.67
67942;SHT31;54731;42.600;23.476;2024-01-27T01:04:53;1.13;72.59
67942;SHT31;54731;42.600;23.476;2024-01-27T01:07:18;1.29;71.43
67942;SHT31;54731;42.600;23.476;2024-01-27T01:09:43;1.37;71.00
67942;SHT31;54731;42.600;23.476;2024-01-27T01:12:08;1.41;70.71
67942;SHT31;54731;42.600;23.476;2024-01-27T01:14:34;1.44;70.49
67942;SHT31;54731;42.600;23.476;2024-01-27T01:16:59;1.54;69.90
67942;SHT31;54731;42.600;23.476;2024-01-27T01:19:24;1.55;69.70
67942;SHT31;54731;42.600;23.476;2024-01-27T01:21:50;1.63;69.38
67942;SHT31;54731;42.600;23.476;2024-01-27T01:24:15;1.67;69.54
67942;SHT31;54731;42.600;23.476;2024-01-27T01:26:40;1.58;69.91
67942;SHT31;54731;42.600;23.476;2024-01-27T01:29:05;1.61;70.04
67942;SHT31;54731;42.600;23.476;2024-01-27T01:31:31;1.60;70.30
67942;SHT31;54731;42.600;23.476;2024-01-27T01:33:56;1.55;70.39
67942;SHT31;54731;42.600;23.476;2024-01-27T01:36:22;1.58;70.42
67942;SHT31;54731;42.600;23.476;2024-01-27T01:38:47;1.51;70.68
67942;SHT31;54731;42.600;23.476;2024-01-27T01:41:12;1.51;70.68
67942;SHT31;54731;42.600;23.476;2024-01-27T01:43:37;1.47;70.83
67942;SHT31;54731;42.600;23.476;2024-01-27T01:46:03;1.44;70.98
67942;SHT31;54731;42.600;23.476;2024-01-27T01:48:28;1.41;71.29
67942;SHT31;54731;42.600;23.476;2024-01-27T01:50:54;1.41;71.23
67942;SHT31;54731;42.600;23.476;2024-01-27T01:53:19;1.46;71.20
67942;SHT31;54731;42.600;23.476;2024-01-27T01:55:45;1.43;71.45
67942;SHT31;54731;42.600;23.476;2024-01-27T01:58:10;1.43;71.71
67942;SHT31;54731;42.600;23.476;2024-01-27T02:00:35;1.47;71.68
67942;SHT31;54731;42.600;23.476;2024-01-27T02:03:01;1.41;71.80
67942;SHT31;54731;42.600;23.476;2024-01-27T02:05:26;1.40;71.94
67942;SHT31;54731;42.600;23.476;2024-01-27T02:07:51;1.36;72.36
67942;SHT31;54731;42.600;23.476;2024-01-27T02:10:17;1.33;72.41
67942;SHT31;54731;42.600;23.476;2024-01-27T02:12:46;1.33;72.59
67942;SHT31;54731;42.600;23.476;2024-01-27T02:15:12;1.27;72.79
67942;SHT31;54731;42.600;23.476;2024-01-27T02:17:38;1.27;72.81
67942;SHT31;54731;42.600;23.476;2024-01-27T02:20:04;1.27;72.82
67942;SHT31;54731;42.600;23.476;2024-01-27T02:22:30;1.27;72.93
67942;SHT31;54731;42.600;23.476;2024-01-27T02:24:55;1.17;73.25
67942;SHT31;54731;42.600;23.476;2024-01-27T02:27:20;1.24;73.29
67942;SHT31;54731;42.600;23.476;2024-01-27T02:29:45;1.23;73.26
67942;SHT31;54731;42.600;23.476;2024-01-27T02:32:11;1.23;72.87
67942;SHT31;54731;42.600;23.476;2024-01-27T02:34:36;1.19;73.07
67942;SHT31;54731;42.600;23.476;2024-01-27T02:37:01;1.24;73.11
67942;SHT31;54731;42.600;23.476;2024-01-27T02:39:27;1.27;73.09
67942;SHT31;54731;42.600;23.476;2024-01-27T02:41:52;1.20;73.39
67942;SHT31;54731;42.600;23.476;2024-01-27T02:44:17;1.20;73.93
67942;SHT31;54731;42.600;23.476;2024-01-27T02:46:43;1.20;73.92
67942;SHT31;54731;42.600;23.476;2024-01-27T02:49:08;1.20;73.86
67942;SHT31;54731;42.600;23.476;2024-01-27T02:51:33;1.27;73.84
67942;SHT31;54731;42.600;23.476;2024-01-27T02:53:58;1.26;73.73
67942;SHT31;54731;42.600;23.476;2024-01-27T02:56:24;1.19;74.49
67942;SHT31;54731;42.600;23.476;2024-01-27T02:58:49;1.19;74.45
67942;SHT31;54731;42.600;23.476;2024-01-27T03:01:14;1.13;74.57
67942;SHT31;54731;42.600;23.476;2024-01-27T03:03:40;1.12;74.69
67942;SHT31;54731;42.600;23.476;2024-01-27T03:06:05;1.17;74.61
67942;SHT31;54731;42.600;23.476;2024-01-27T03:08:30;1.22;74.45
67942;SHT31;54731;42.600;23.476;2024-01-27T03:10:56;1.22;74.25
67942;SHT31;54731;42.600;23.476;2024-01-27T03:13:21;1.20;74.36
67942;SHT31;54731;42.600;23.476;2024-01-27T03:15:46;1.26;74.32
67942;SHT31;54731;42.600;23.476;2024-01-27T03:18:12;1.26;74.44
67942;SHT31;54731;42.600;23.476;2024-01-27T03:20:37;1.17;74.74
67942;SHT31;54731;42.600;23.476;2024-01-27T03:23:02;1.07;75.19
67942;SHT31;54731;42.600;23.476;2024-01-27T03:25:28;1.06;75.31
67942;SHT31;54731;42.600;23.476;2024-01-27T03:27:53;1.03;75.56
67942;SHT31;54731;42.600;23.476;2024-01-27T03:30:18;1.06;75.70
67942;SHT31;54731;42.600;23.476;2024-01-27T03:32:44;1.12;75.62
67942;SHT31;54731;42.600;23.476;2024-01-27T03:35:09;1.13;75.60
67942;SHT31;54731;42.600;23.476;2024-01-27T03:37:34;1.22;75.54
67942;SHT31;54731;42.600;23.476;2024-01-27T03:40:00;1.19;75.51
67942;SHT31;54731;42.600;23.476;2024-01-27T03:42:26;1.15;75.90
67942;SHT31;54731;42.600;23.476;2024-01-27T03:44:51;1.26;75.56
67942;SHT31;54731;42.600;23.476;2024-01-27T03:47:17;1.29;74.81
67942;SHT31;54731;42.600;23.476;2024-01-27T03:49:42;1.30;74.74
67942;SHT31;54731;42.600;23.476;2024-01-27T03:52:08;1.34;73.43
67942;SHT31;54731;42.600;23.476;2024-01-27T03:54:33;1.41;72.34
67942;SHT31;54731;42.600;23.476;2024-01-27T03:56:59;1.58;72.69
67942;SHT31;54731;42.600;23.476;2024-01-27T03:59:24;1.64;73.36
67942;SHT31;54731;42.600;23.476;2024-01-27T04:01:49;1.74;74.76
67942;SHT31;54731;42.600;23.476;2024-01-27T04:04:15;1.74;74.85
67942;SHT31;54731;42.600;23.476;2024-01-27T04:06:40;1.73;75.27
67942;SHT31;54731;42.600;23.476;2024-01-27T04:09:06;1.68;75.93
67942;SHT31;54731;42.600;23.476;2024-01-27T04:11:32;1.68;76.62
67942;SHT31;54731;42.600;23.476;2024-01-27T04:13:57;1.67;76.70
67942;SHT31;54731;42.600;23.476;2024-01-27T04:16:22;1.64;77.15
67942;SHT31;54731;42.600;23.476;2024-01-27T04:18:48;1.71;77.68
67942;SHT31;54731;42.600;23.476;2024-01-27T04:21:13;1.71;77.63
67942;SHT31;54731;42.600;23.476;2024-01-27T04:23:38;1.75;77.95
67942;SHT31;54731;42.600;23.476;2024-01-27T04:26:04;1.75;78.41
67942;SHT31;54731;42.600;23.476;2024-01-27T04:28:29;1.74;78.98
67942;SHT31;54731;42.600;23.476;2024-01-27T04:30:54;1.81;79.42
67942;SHT31;54731;42.600;23.476;2024-01-27T04:33:20;1.91;79.69
67942;SHT31;54731;42.600;23.476;2024-01-27T04:35:45;1.98;79.73
67942;SHT31;54731;42.600;23.476;2024-01-27T04:38:10;2.01;79.72
67942;SHT31;54731;42.600;23.476;2024-01-27T04:40:35;2.04;79.69
67942;SHT31;54731;42.600;23.476;2024-01-27T04:43:01;2.06;79.65
67942;SHT31;54731;42.600;23.476;2024-01-27T04:45:27;2.11;79.40
67942;SHT31;54731;42.600;23.476;2024-01-27T04:47:53;2.08;79.36
67942;SHT31;54731;42.600;23.476;2024-01-27T04:50:18;2.06;79.51
67942;SHT31;54731;42.600;23.476;2024-01-27T04:52:43;2.14;79.28
67942;SHT31;54731;42.600;23.476;2024-01-27T04:55:08;2.15;79.23
67942;SHT31;54731;42.600;23.476;2024-01-27T04:57:34;2.09;79.32
67942;SHT31;54731;42.600;23.476;2024-01-27T04:59:59;2.12;79.49
67942;SHT31;54731;42.600;23.476;2024-01-27T05:02:24;2.14;79.28
67942;SHT31;54731;42.600;23.476;2024-01-27T05:04:50;2.09;79.35
67942;SHT31;54731;42.600;23.476;2024-01-27T05:07:15;2.05;79.55
67942;SHT31;54731;42.600;23.476;2024-01-27T05:09:40;2.04;79.65
67942;SHT31;54731;42.600;23.476;2024-01-27T05:12:06;1.98;79.71
67942;SHT31;54731;42.600;23.476;2024-01-27T05:14:31;1.97;79.82
67942;SHT31;54731;42.600;23.476;2024-01-27T05:16:56;1.99;79.70
67942;SHT31;54731;42.600;23.476;2024-01-27T05:19:22;2.01;79.61
67942;SHT31;54731;42.600;23.476;2024-01-27T05:21:47;1.97;79.57
67942;SHT31;54731;42.600;23.476;2024-01-27T05:24:12;1.97;79.69
67942;SHT31;54731;42.600;23.476;2024-01-27T05:26:37;1.93;79.84
67942;SHT31;54731;42.600;23.476;2024-01-27T05:29:03;1.98;80.12
67942;SHT31;54731;42.600;23.476;2024-01-27T05:31:28;1.95;80.20
67942;SHT31;54731;42.600;23.476;2024-01-27T05:33:53;1.91;80.51
67942;SHT31;54731;42.600;23.476;2024-01-27T05:36:19;1.89;80.85
67942;SHT31;54731;42.600;23.476;2024-01-27T05:38:44;1.89;80.91
67942;SHT31;54731;42.600;23.476;2024-01-27T05:41:09;1.91;81.18
67942;SHT31;54731;42.600;23.476;2024-01-27T05:43:35;1.93;81.53
67942;SHT31;54731;42.600;23.476;2024-01-27T05:46:00;1.91;81.67
67942;SHT31;54731;42.600;23.476;2024-01-27T05:48:25;1.91;81.98
67942;SHT31;54731;42.600;23.476;2024-01-27T05:50:58;1.93;82.54
67942;SHT31;54731;42.600;23.476;2024-01-27T05:53:24;1.94;82.49
67942;SHT31;54731;42.600;23.476;2024-01-27T05:55:49;1.94;82.55
67942;SHT31;54731;42.600;23.476;2024-01-27T05:58:15;1.89;82.60
67942;SHT31;54731;42.600;23.476;2024-01-27T06:00:42;1.82;82.80
67942;SHT31;54731;42.600;23.476;2024-01-27T06:03:08;1.81;82.64
67942;SHT31;54731;42.600;23.476;2024-01-27T06:05:33;1.84;82.49
67942;SHT31;54731;42.600;23.476;2024-01-27T06:07:58;1.81;82.46
67942;SHT31;54731;42.600;23.476;2024-01-27T06:10:23;1.73;82.65
67942;SHT31;54731;42.600;23.476;2024-01-27T06:12:49;1.73;82.72
67942;SHT31;54731;42.600;23.476;2024-01-27T06:15:14;1.73;82.73
67942;SHT31;54731;42.600;23.476;2024-01-27T06:17:39;1.71;82.63
67942;SHT31;54731;42.600;23.476;2024-01-27T06:20:05;1.73;82.60
67942;SHT31;54731;42.600;23.476;2024-01-27T06:22:31;1.74;82.47
67942;SHT31;54731;42.600;23.476;2024-01-27T06:24:56;1.68;82.65
67942;SHT31;54731;42.600;23.476;2024-01-27T06:27:21;1.67;82.83
67942;SHT31;54731;42.600;23.476;2024-01-27T06:29:46;1.63;82.92
67942;SHT31;54731;42.600;23.476;2024-01-27T06:32:12;1.65;82.92
67942;SHT31;54731;42.600;23.476;2024-01-27T06:34:37;1.64;83.09
67942;SHT31;54731;42.600;23.476;2024-01-27T06:37:02;1.68;83.43
67942;SHT31;54731;42.600;23.476;2024-01-27T06:39:28;1.68;83.42
67942;SHT31;54731;42.600;23.476;2024-01-27T06:41:53;1.68;83.86
67942;SHT31;54731;42.600;23.476;2024-01-27T06:44:18;1.78;83.83
67942;SHT31;54731;42.600;23.476;2024-01-27T06:46:43;1.91;83.75
67942;SHT31;54731;42.600;23.476;2024-01-27T06:49:09;1.94;83.87
67942;SHT31;54731;42.600;23.476;2024-01-27T06:51:34;1.94;84.18
67942;SHT31;54731;42.600;23.476;2024-01-27T06:53:59;1.95;84.41
67942;SHT31;54731;42.600;23.476;2024-01-27T06:56:25;1.98;84.97
67942;SHT31;54731;42.600;23.476;2024-01-27T06:58:50;2.02;85.21
67942;SHT31;54731;42.600;23.476;2024-01-27T07:01:15;2.14;85.28
67942;SHT31;54731;42.600;23.476;2024-01-27T07:03:40;2.29;84.79
67942;SHT31;54731;42.600;23.476;2024-01-27T07:06:06;2.35;84.41
67942;SHT31;54731;42.600;23.476;2024-01-27T07:08:31;2.49;83.64
67942;SHT31;54731;42.600;23.476;2024-01-27T07:10:56;2.63;82.77
67942;SHT31;54731;42.600;23.476;2024-01-27T07:13:22;2.73;82.31
67942;SHT31;54731;42.600;23.476;2024-01-27T07:15:47;2.90;81.21
67942;SHT31;54731;42.600;23.476;2024-01-27T07:18:12;3.05;80.05
67942;SHT31;54731;42.600;23.476;2024-01-27T07:20:38;3.13;79.72
67942;SHT31;54731;42.600;23.476;2024-01-27T07:23:03;3.17;79.11
67942;SHT31;54731;42.600;23.476;2024-01-27T07:25:28;3.25;79.00
67942;SHT31;54731;42.600;23.476;2024-01-27T07:27:54;3.30;78.54
67942;SHT31;54731;42.600;23.476;2024-01-27T07:30:19;3.39;77.92
67942;SHT31;54731;42.600;23.476;2024-01-27T07:32:44;3.42;77.30
67942;SHT31;54731;42.600;23.476;2024-01-27T07:35:10;3.44;76.95
67942;SHT31;54731;42.600;23.476;2024-01-27T07:37:35;3.51;76.35
67942;SHT31;54731;42.600;23.476;2024-01-27T07:40:01;3.52;76.44
67942;SHT31;54731;42.600;23.476;2024-01-27T07:42:26;3.48;76.45
67942;SHT31;54731;42.600;23.476;2024-01-27T07:44:51;3.50;76.39
67942;SHT31;54731;42.600;23.476;2024-01-27T07:47:16;3.51;75.84
67942;SHT31;54731;42.600;23.476;2024-01-27T07:49:42;3.55;75.74
67942;SHT31;54731;42.600;23.476;2024-01-27T07:52:07;3.54;74.40
67942;SHT31;54731;42.600;23.476;2024-01-27T07:54:32;3.54;73.98
67942;SHT31;54731;42.600;23.476;2024-01-27T07:56:58;3.55;73.34
67942;SHT31;54731;42.600;23.476;2024-01-27T07:59:24;3.58;73.03
67942;SHT31;54731;42.600;23.476;2024-01-27T08:01:49;3.51;72.58
67942;SHT31;54731;42.600;23.476;2024-01-27T08:04:14;3.58;72.31
67942;SHT31;54731;42.600;23.476;2024-01-27T08:06:49;3.58;71.11
67942;SHT31;54731;42.600;23.476;2024-01-27T08:09:16;3.59;70.64
67942;SHT31;54731;42.600;23.476;2024-01-27T08:11:41;3.61;70.84
67942;SHT31;54731;42.600;23.476;2024-01-27T08:14:07;3.61;71.10
67942;SHT31;54731;42.600;23.476;2024-01-27T08:16:32;3.56;70.91
67942;SHT31;54731;42.600;23.476;2024-01-27T08:18:57;3.58;71.00
67942;SHT31;54731;42.600;23.476;2024-01-27T08:21:23;3.59;70.95
67942;SHT31;54731;42.600;23.476;2024-01-27T08:23:48;3.54;71.57
67942;SHT31;54731;42.600;23.476;2024-01-27T08:26:14;3.51;71.47
67942;SHT31;54731;42.600;23.476;2024-01-27T08:28:39;3.56;71.05
67942;SHT31;54731;42.600;23.476;2024-01-27T08:31:05;3.59;70.57
67942;SHT31;54731;42.600;23.476;2024-01-27T08:33:30;3.69;69.50
67942;SHT31;54731;42.600;23.476;2024-01-27T08:35:55;3.71;69.09
67942;SHT31;54731;42.600;23.476;2024-01-27T08:38:21;3.75;68.89
67942;SHT31;54731;42.600;23.476;2024-01-27T08:40:46;3.82;68.52
67942;SHT31;54731;42.600;23.476;2024-01-27T08:43:11;3.89;68.32
67942;SHT31;54731;42.600;23.476;2024-01-27T08:45:37;3.85;68.67
67942;SHT31;54731;42.600;23.476;2024-01-27T08:48:03;3.83;68.64
67942;SHT31;54731;42.600;23.476;2024-01-27T08:50:28;3.89;68.57
67942;SHT31;54731;42.600;23.476;2024-01-27T08:52:54;3.96;68.50
67942;SHT31;54731;42.600;23.476;2024-01-27T08:55:19;4.02;68.11
67942;SHT31;54731;42.600;23.476;2024-01-27T08:57:46;4.10;68.51
67942;SHT31;54731;42.600;23.476;2024-01-27T09:00:12;4.20;68.12
67942;SHT31;54731;42.600;23.476;2024-01-27T09:02:37;4.34;67.82
67942;SHT31;54731;42.600;23.476;2024-01-27T09:05:02;4.41;67.38
67942;SHT31;54731;42.600;23.476;2024-01-27T09:07:29;4.44;67.79
67942;SHT31;54731;42.600;23.476;2024-01-27T09:09:54;4.56;67.42
67942;SHT31;54731;42.600;23.476;2024-01-27T09:12:19;4.57;67.80
67942;SHT31;54731;42.600;23.476;2024-01-27T09:14:44;4.47;67.23
67942;SHT31;54731;42.600;23.476;2024-01-27T09:17:10;4.53;67.54
67942;SHT31;54731;42.600;23.476;2024-01-27T09:19:35;4.46;66.51
67942;SHT31;54731;42.600;23.476;2024-01-27T09:22:00;4.39;66.48
67942;SHT31;54731;42.600;23.476;2024-01-27T09:24:26;4.46;66.43
67942;SHT31;54731;42.600;23.476;2024-01-27T09:26:51;4.47;67.11
67942;SHT31;54731;42.600;23.476;2024-01-27T09:29:16;4.44;66.44
67942;SHT31;54731;42.600;23.476;2024-01-27T09:31:41;4.47;66.18
67942;SHT31;54731;42.600;23.476;2024-01-27T09:34:07;4.33;66.67
67942;SHT31;54731;42.600;23.476;2024-01-27T09:36:32;4.30;66.99
67942;SHT31;54731;42.600;23.476;2024-01-27T09:38:57;4.30;67.18
67942;SHT31;54731;42.600;23.476;2024-01-27T09:41:23;4.27;67.16
67942;SHT31;54731;42.600;23.476;2024-01-27T09:43:48;4.30;67.05
67942;SHT31;54731;42.600;23.476;2024-01-27T09:46:15;4.33;67.10
67942;SHT31;54731;42.600;23.476;2024-01-27T09:48:43;4.33;67.18
67942;SHT31;54731;42.600;23.476;2024-01-27T09:51:09;4.33;67.23
67942;SHT31;54731;42.600;23.476;2024-01-27T09:53:35;4.32;67.00
67942;SHT31;54731;42.600;23.476;2024-01-27T09:56:02;4.23;67.05
67942;SHT31;54731;42.600;23.476;2024-01-27T09:58:29;4.26;67.43
67942;SHT31;54731;42.600;23.476;2024-01-27T10:00:59;4.17;68.11
67942;SHT31;54731;42.600;23.476;2024-01-27T10:03:26;4.19;67.99
67942;SHT31;54731;42.600;23.476;2024-01-27T10:05:56;4.21;68.09
67942;SHT31;54731;42.600;23.476;2024-01-27T10:08:22;4.20;67.91
67942;SHT31;54731;42.600;23.476;2024-01-27T10:10:57;4.16;68.40
67942;SHT31;54731;42.600;23.476;2024-01-27T10:13:22;4.07;67.82
67942;SHT31;54731;42.600;23.476;2024-01-27T10:15:59;4.03;68.71
67942;SHT31;54731;42.600;23.476;2024-01-27T10:18:24;3.99;69.04
67942;SHT31;54731;42.600;23.476;2024-01-27T10:20:49;3.92;68.92
67942;SHT31;54731;42.600;23.476;2024-01-27T10:23:15;3.97;68.84
67942;SHT31;54731;42.600;23.476;2024-01-27T10:25:40;3.93;68.92
67942;SHT31;54731;42.600;23.476;2024-01-27T10:28:07;3.86;68.87
67942;SHT31;54731;42.600;23.476;2024-01-27T10:30:32;3.92;68.99
67942;SHT31;54731;42.600;23.476;2024-01-27T10:32:57;3.93;69.10
67942;SHT31;54731;42.600;23.476;2024-01-27T10:35:23;3.93;68.99
67942;SHT31;54731;42.600;23.476;2024-01-27T10:37:52;3.85;69.00
67942;SHT31;54731;42.600;23.476;2024-01-27T10:40:17;3.68;69.59
67942;SHT31;54731;42.600;23.476;2024-01-27T10:42:43;3.68;70.15
67942;SHT31;54731;42.600;23.476;2024-01-27T10:45:11;3.68;70.12
67942;SHT31;54731;42.600;23.476;2024-01-27T10:47:38;3.66;70.17
67942;SHT31;54731;42.600;23.476;2024-01-27T10:50:08;3.61;70.48
67942;SHT31;54731;42.600;23.476;2024-01-27T10:52:38;3.61;70.74
67942;SHT31;54731;42.600;23.476;2024-01-27T10:55:05;3.65;70.62
67942;SHT31;54731;42.600;23.476;2024-01-27T10:57:31;3.59;70.39
67942;SHT31;54731;42.600;23.476;2024-01-27T10:59:57;3.59;70.22
67942;SHT31;54731;42.600;23.476;2024-01-27T11:02:24;3.61;70.17
67942;SHT31;54731;42.600;23.476;2024-01-27T11:04:50;3.62;70.21
67942;SHT31;54731;42.600;23.476;2024-01-27T11:07:17;3.69;70.37
67942;SHT31;54731;42.600;23.476;2024-01-27T11:09:44;3.71;70.79
67942;SHT31;54731;42.600;23.476;2024-01-27T11:12:11;3.68;70.32
67942;SHT31;54731;42.600;23.476;2024-01-27T11:14:36;3.72;70.68
67942;SHT31;54731;42.600;23.476;2024-01-27T11:17:02;3.61;71.18
67942;SHT31;54731;42.600;23.476;2024-01-27T11:19:27;3.54;71.12
67942;SHT31;54731;42.600;23.476;2024-01-27T11:22:05;3.48;71.62
67942;SHT31;54731;42.600;23.476;2024-01-27T11:24:31;3.54;71.57
67942;SHT31;54731;42.600;23.476;2024-01-27T11:27:06;3.50;71.59
67942;SHT31;54731;42.600;23.476;2024-01-27T11:29:32;3.45;71.88
67942;SHT31;54731;42.600;23.476;2024-01-27T11:32:01;3.42;72.12
67942;SHT31;54731;42.600;23.476;2024-01-27T11:34:26;3.42;72.13
67942;SHT31;54731;42.600;23.476;2024-01-27T11:36:51;3.34;72.55
67942;SHT31;54731;42.600;23.476;2024-01-27T11:39:29;3.36;72.58
67942;SHT31;54731;42.600;23.476;2024-01-27T11:42:05;3.35;72.55
67942;SHT31;54731;42.600;23.476;2024-01-27T11:44:34;3.34;72.45
67942;SHT31;54731;42.600;23.476;2024-01-27T11:46:59;3.25;72.71
67942;SHT31;54731;42.600;23.476;2024-01-27T11:49:24;3.18;73.01
67942;SHT31;54731;42.600;23.476;2024-01-27T11:51:50;3.20;73.09
67942;SHT31;54731;42.600;23.476;2024-01-27T11:54:15;3.17;73.25
67942;SHT31;54731;42.600;23.476;2024-01-27T11:56:40;3.14;73.53
67942;SHT31;54731;42.600;23.476;2024-01-27T11:59:06;3.14;73.52
67942;SHT31;54731;42.600;23.476;2024-01-27T12:01:31;3.08;73.63
67942;SHT31;54731;42.600;23.476;2024-01-27T12:03:56;3.13;73.47
67942;SHT31;54731;42.600;23.476;2024-01-27T12:06:22;3.15;73.02
67942;SHT31;54731;42.600;23.476;2024-01-27T12:08:48;3.15;72.25
67942;SHT31;54731;42.600;23.476;2024-01-27T12:11:13;3.20;72.16
67942;SHT31;54731;42.600;23.476;2024-01-27T12:13:39;3.17;72.25
67942;SHT31;54731;42.600;23.476;2024-01-27T12:16:05;3.21;71.65
67942;SHT31;54731;42.600;23.476;2024-01-27T12:18:30;3.25;71.83
67942;SHT31;54731;42.600;23.476;2024-01-27T12:20:56;3.27;71.81
67942;SHT31;54731;42.600;23.476;2024-01-27T12:23:21;3.27;70.96
67942;SHT31;54731;42.600;23.476;2024-01-27T12:25:53;3.28;70.90
67942;SHT31;54731;42.600;23.476;2024-01-27T12:28:18;3.32;70.74
67942;SHT31;54731;42.600;23.476;2024-01-27T12:30:44;3.32;70.41
67942;SHT31;54731;42.600;23.476;2024-01-27T12:33:12;3.28;70.41
67942;SHT31;54731;42.600;23.476;2024-01-27T12:35:37;3.32;70.38
67942;SHT31;54731;42.600;23.476;2024-01-27T12:38:02;3.34;69.92
67942;SHT31;54731;42.600;23.476;2024-01-27T12:40:28;3.35;69.11
67942;SHT31;54731;42.600;23.476;2024-01-27T12:42:53;3.38;68.91
67942;SHT31;54731;42.600;23.476;2024-01-27T12:45:18;3.51;69.30
67942;SHT31;54731;42.600;23.476;2024-01-27T12:47:44;3.61;68.70
67942;SHT31;54731;42.600;23.476;2024-01-27T12:50:09;3.78;68.04
67942;SHT31;54731;42.600;23.476;2024-01-27T12:52:34;3.83;67.16
67942;SHT31;54731;42.600;23.476;2024-01-27T12:55:00;3.95;67.20
67942;SHT31;54731;42.600;23.476;2024-01-27T12:57:25;4.06;67.19
67942;SHT31;54731;42.600;23.476;2024-01-27T12:59:50;4.10;66.45
67942;SHT31;54731;42.600;23.476;2024-01-27T13:02:16;4.05;66.84
67942;SHT31;54731;42.600;23.476;2024-01-27T13:04:41;3.97;66.69
67942;SHT31;54731;42.600;23.476;2024-01-27T13:07:07;3.96;67.41
67942;SHT31;54731;42.600;23.476;2024-01-27T13:09:32;3.95;66.46
67942;SHT31;54731;42.600;23.476;2024-01-27T13:11:58;3.87;66.54
67942;SHT31;54731;42.600;23.476;2024-01-27T13:14:23;3.87;66.78
67942;SHT31;54731;42.600;23.476;2024-01-27T13:16:48;3.82;66.55
67942;SHT31;54731;42.600;23.476;2024-01-27T13:19:14;3.85;65.82
67942;SHT31;54731;42.600;23.476;2024-01-27T13:21:39;3.81;65.22
67942;SHT31;54731;42.600;23.476;2024-01-27T13:24:05;3.90;64.78
67942;SHT31;54731;42.600;23.476;2024-01-27T13:26:30;3.95;64.46
67942;SHT31;54731;42.600;23.476;2024-01-27T13:28:56;3.96;63.01
67942;SHT31;54731;42.600;23.476;2024-01-27T13:31:21;4.00;63.03
67942;SHT31;54731;42.600;23.476;2024-01-27T13:33:46;4.02;62.69
67942;SHT31;54731;42.600;23.476;2024-01-27T13:36:12;4.02;62.57
67942;SHT31;54731;42.600;23.476;2024-01-27T13:38:37;4.00;62.87
67942;SHT31;54731;42.600;23.476;2024-01-27T13:41:02;4.00;63.24
67942;SHT31;54731;42.600;23.476;2024-01-27T13:43:28;4.00;62.84
67942;SHT31;54731;42.600;23.476;2024-01-27T13:45:53;4.00;61.21
67942;SHT31;54731;42.600;23.476;2024-01-27T13:48:19;4.03;61.06
67942;SHT31;54731;42.600;23.476;2024-01-27T13:50:44;3.86;60.30
67942;SHT31;54731;42.600;23.476;2024-01-27T13:53:09;3.83;59.85
67942;SHT31;54731;42.600;23.476;2024-01-27T13:55:35;3.78;60.10
67942;SHT31;54731;42.600;23.476;2024-01-27T13:58:00;3.74;59.75
67942;SHT31;54731;42.600;23.476;2024-01-27T14:00:25;3.59;60.40
67942;SHT31;54731;42.600;23.476;2024-01-27T14:02:50;3.58;60.83
67942;SHT31;54731;42.600;23.476;2024-01-27T14:05:16;3.55;60.70
67942;SHT31;54731;42.600;23.476;2024-01-27T14:07:41;3.38;60.79
67942;SHT31;54731;42.600;23.476;2024-01-27T14:10:07;3.34;61.07
67942;SHT31;54731;42.600;23.476;2024-01-27T14:12:32;3.25;61.20
67942;SHT31;54731;42.600;23.476;2024-01-27T14:15:05;3.13;62.46
67942;SHT31;54731;42.600;23.476;2024-01-27T14:17:30;3.08;62.45
67942;SHT31;54731;42.600;23.476;2024-01-27T14:19:55;3.04;63.04
67942;SHT31;54731;42.600;23.476;2024-01-27T14:22:21;3.03;62.98
67942;SHT31;54731;42.600;23.476;2024-01-27T14:24:46;3.00;62.76
67942;SHT31;54731;42.600;23.476;2024-01-27T14:27:11;2.97;62.87
67942;SHT31;54731;42.600;23.476;2024-01-27T14:29:37;2.94;62.55
67942;SHT31;54731;42.600;23.476;2024-01-27T14:32:03;2.93;62.69
67942;SHT31;54731;42.600;23.476;2024-01-27T14:34:28;2.94;62.56
67942;SHT31;54731;42.600;23.476;2024-01-27T14:36:53;2.90;62.99
67942;SHT31;54731;42.600;23.476;2024-01-27T14:39:19;2.89;63.10
67942;SHT31;54731;42.600;23.476;2024-01-27T14:41:44;2.86;63.51
67942;SHT31;54731;42.600;23.476;2024-01-27T14:44:09;2.84;63.22
67942;SHT31;54731;42.600;23.476;2024-01-27T14:46:34;2.86;63.22
67942;SHT31;54731;42.600;23.476;2024-01-27T14:49:00;2.83;62.99
67942;SHT31;54731;42.600;23.476;2024-01-27T14:51:25;2.83;62.87
67942;SHT31;54731;42.600;23.476;2024-01-27T14:53:50;2.83;62.93
67942;SHT31;54731;42.600;23.476;2024-01-27T14:56:16;2.81;63.23
67942;SHT31;54731;42.600;23.476;2024-01-27T14:58:41;2.81;63.32
67942;SHT31;54731;42.600;23.476;2024-01-27T15:01:07;2.81;63.68
67942;SHT31;54731;42.600;23.476;2024-01-27T15:03:32;2.77;63.41
67942;SHT31;54731;42.600;23.476;2024-01-27T15:05:57;2.76;63.80
67942;SHT31;54731;42.600;23.476;2024-01-27T15:08:23;2.75;63.88
67942;SHT31;54731;42.600;23.476;2024-01-27T15:10:49;2.75;64.02
67942;SHT31;54731;42.600;23.476;2024-01-27T15:13:14;2.70;63.82
67942;SHT31;54731;42.600;23.476;2024-01-27T15:15:40;2.69;64.20
67942;SHT31;54731;42.600;23.476;2024-01-27T15:18:07;2.64;64.40
67942;SHT31;54731;42.600;23.476;2024-01-27T15:20:34;2.70;64.04